createdAt,value
2022-07-28T00:00:17.644Z,12.70
2022-07-28T00:02:20.434Z,12.70
2022-07-28T00:04:23.161Z,12.60
2022-07-28T00:06:27.192Z,12.60
2022-07-28T00:08:29.884Z,12.60
2022-07-28T00:10:32.642Z,12.40
2022-07-28T00:12:35.472Z,12.20
2022-07-28T00:14:38.156Z,12.00
2022-07-28T00:16:40.898Z,12.00
2022-07-28T00:18:43.616Z,11.90
2022-07-28T00:20:46.333Z,12.00
2022-07-28T00:22:50.356Z,12.10
2022-07-28T00:24:53.041Z,12.10
2022-07-28T00:26:55.777Z,12.20
2022-07-28T00:28:58.460Z,12.30
2022-07-28T00:31:05.279Z,12.20
2022-07-28T00:33:09.037Z,12.10
2022-07-28T00:35:12.378Z,12.10
2022-07-28T00:37:17.758Z,12.10
2022-07-28T00:39:21.772Z,12.00
2022-07-28T00:41:24.480Z,12.10
2022-07-28T00:43:27.159Z,12.00
2022-07-28T00:45:29.844Z,12.10
2022-07-28T00:47:33.851Z,12.10
2022-07-28T00:49:36.908Z,12.10
2022-07-28T00:51:39.723Z,12.10
2022-07-28T00:53:42.404Z,12.10
2022-07-28T00:56:03.669Z,12.00
2022-07-28T00:58:09.096Z,12.00
2022-07-28T01:00:12.622Z,11.90
2022-07-28T01:02:15.385Z,11.90
2022-07-28T01:04:18.357Z,11.80
2022-07-28T01:06:29.329Z,11.80
2022-07-28T01:08:38.279Z,11.80
2022-07-28T01:10:44.812Z,11.70
2022-07-28T01:12:56.727Z,11.50
2022-07-28T01:15:02.885Z,11.50
2022-07-28T01:17:21.183Z,11.30
2022-07-28T01:19:37.323Z,11.10
2022-07-28T01:21:40.028Z,11.10
2022-07-28T01:24:09.274Z,11.20
2022-07-28T01:26:20.888Z,11.30
2022-07-28T01:28:30.256Z,11.30
2022-07-28T01:30:36.520Z,11.40
2022-07-28T01:32:41.592Z,11.30
2022-07-28T01:34:49.633Z,11.30
2022-07-28T01:36:55.764Z,11.20
2022-07-28T01:38:58.494Z,11.20
2022-07-28T01:41:01.861Z,11.10
2022-07-28T01:43:07.634Z,11.00
2022-07-28T01:45:11.886Z,11.10
2022-07-28T01:47:15.932Z,11.00
2022-07-28T01:49:18.790Z,11.10
2022-07-28T01:51:21.540Z,11.00
2022-07-28T01:53:24.753Z,10.90
2022-07-28T01:55:27.440Z,10.90
2022-07-28T01:57:30.377Z,10.80
2022-07-28T01:59:33.071Z,10.80
2022-07-28T02:01:36.354Z,10.80
2022-07-28T02:03:40.767Z,10.70
2022-07-28T02:05:43.598Z,10.70
2022-07-28T02:07:47.390Z,10.80
2022-07-28T02:09:50.115Z,10.70
2022-07-28T02:11:54.039Z,10.70
2022-07-28T02:13:56.728Z,10.70
2022-07-28T02:15:59.421Z,10.60
2022-07-28T02:18:02.201Z,10.50
2022-07-28T02:20:09.524Z,10.50
2022-07-28T02:22:12.228Z,10.50
2022-07-28T02:24:15.563Z,10.50
2022-07-28T02:26:18.400Z,10.50
2022-07-28T02:28:21.664Z,10.50
2022-07-28T02:30:27.513Z,10.50
2022-07-28T02:32:32.959Z,10.50
2022-07-28T02:34:37.002Z,10.50
2022-07-28T02:36:44.871Z,10.50
2022-07-28T02:38:51.136Z,10.50
2022-07-28T02:40:55.461Z,10.50
2022-07-28T02:42:58.166Z,10.50
2022-07-28T02:45:01.653Z,10.50
2022-07-28T02:47:06.080Z,10.50
2022-07-28T02:49:11.681Z,10.40
2022-07-28T02:51:14.392Z,10.30
2022-07-28T02:53:18.444Z,10.20
2022-07-28T02:55:21.290Z,10.20
2022-07-28T02:57:24.151Z,9.90
2022-07-28T02:59:27.097Z,9.90
2022-07-28T03:01:29.831Z,10.00
2022-07-28T03:03:34.040Z,10.10
2022-07-28T03:05:36.875Z,10.10
2022-07-28T03:07:41.245Z,10.00
2022-07-28T03:09:55.014Z,10.10
2022-07-28T03:11:57.740Z,10.00
2022-07-28T03:14:00.439Z,9.90
2022-07-28T03:16:04.862Z,10.00
2022-07-28T03:18:07.894Z,9.90
2022-07-28T03:20:11.576Z,9.90
2022-07-28T03:22:14.304Z,10.00
2022-07-28T03:24:17.329Z,10.10
2022-07-28T03:26:24.399Z,10.20
2022-07-28T03:28:27.100Z,10.20
2022-07-28T03:30:32.620Z,10.30
2022-07-28T03:32:36.427Z,10.40
2022-07-28T03:34:39.139Z,10.50
2022-07-28T03:36:44.870Z,10.60
2022-07-28T03:38:49.684Z,10.50
2022-07-28T03:40:52.459Z,10.50
2022-07-28T03:42:56.549Z,10.50
2022-07-28T03:44:59.246Z,10.50
2022-07-28T03:47:01.943Z,10.40
2022-07-28T03:49:08.743Z,10.40
2022-07-28T03:51:11.780Z,10.30
2022-07-28T03:53:15.992Z,10.30
2022-07-28T03:55:18.680Z,10.30
2022-07-28T03:57:21.392Z,10.30
2022-07-28T03:59:25.500Z,10.30
2022-07-28T04:01:28.269Z,10.30
2022-07-28T04:03:36.708Z,10.30
2022-07-28T04:05:46.292Z,10.20
2022-07-28T04:07:48.994Z,10.10
2022-07-28T04:09:51.675Z,10.20
2022-07-28T04:11:54.379Z,10.30
2022-07-28T04:13:57.237Z,10.30
2022-07-28T04:16:01.414Z,10.40
2022-07-28T04:18:04.226Z,10.30
2022-07-28T04:20:08.049Z,10.30
2022-07-28T04:22:10.761Z,10.40
2022-07-28T04:24:13.686Z,10.30
2022-07-28T04:26:18.074Z,10.30
2022-07-28T04:28:20.808Z,10.40
2022-07-28T04:30:25.554Z,10.50
2022-07-28T04:32:29.646Z,10.60
2022-07-28T04:34:32.340Z,10.70
2022-07-28T04:36:41.695Z,10.70
2022-07-28T04:38:44.383Z,10.80
2022-07-28T04:40:47.181Z,10.80
2022-07-28T04:42:50.348Z,10.80
2022-07-28T04:44:53.047Z,10.90
2022-07-28T04:46:55.755Z,11.00
2022-07-28T04:48:59.893Z,11.00
2022-07-28T04:51:02.807Z,11.10
2022-07-28T04:53:05.495Z,11.10
2022-07-28T04:55:08.783Z,11.10
2022-07-28T04:57:12.847Z,11.20
2022-07-28T04:59:17.145Z,11.30
2022-07-28T05:01:21.733Z,11.30
2022-07-28T05:03:24.603Z,11.40
2022-07-28T05:05:29.017Z,11.50
2022-07-28T05:07:33.843Z,11.40
2022-07-28T05:09:36.546Z,11.50
2022-07-28T05:11:39.264Z,11.50
2022-07-28T05:13:41.951Z,11.50
2022-07-28T05:15:44.645Z,11.60
2022-07-28T05:17:47.356Z,11.60
2022-07-28T05:19:50.067Z,11.80
2022-07-28T05:21:54.099Z,11.90
2022-07-28T05:23:56.796Z,12.00
2022-07-28T05:25:59.505Z,12.10
2022-07-28T05:28:02.187Z,12.20
2022-07-28T05:30:05.597Z,12.20
2022-07-28T05:32:17.199Z,12.30
2022-07-28T05:34:20.652Z,12.30
2022-07-28T05:36:23.364Z,12.40
2022-07-28T05:38:27.420Z,12.40
2022-07-28T05:40:30.130Z,12.50
2022-07-28T05:42:35.906Z,12.50
2022-07-28T05:44:38.677Z,12.50
2022-07-28T05:46:41.402Z,12.50
2022-07-28T05:48:44.100Z,12.50
2022-07-28T05:50:46.896Z,12.50
2022-07-28T05:52:51.101Z,12.60
2022-07-28T05:54:55.379Z,12.60
2022-07-28T05:56:58.088Z,12.70
2022-07-28T05:59:00.773Z,12.70
2022-07-28T06:01:03.611Z,12.70
2022-07-28T06:03:07.403Z,12.90
2022-07-28T06:05:11.001Z,12.90
2022-07-28T06:07:13.699Z,13.00
2022-07-28T06:09:16.394Z,13.00
2022-07-28T06:11:22.501Z,13.00
2022-07-28T06:13:25.604Z,13.10
2022-07-28T06:15:28.894Z,13.20
2022-07-28T06:17:31.791Z,13.30
2022-07-28T06:19:34.636Z,13.50
2022-07-28T06:21:37.372Z,13.70
2022-07-28T06:23:40.071Z,13.90
2022-07-28T06:25:42.819Z,14.30
2022-07-28T06:27:47.706Z,14.60
2022-07-28T06:29:50.415Z,14.80
2022-07-28T06:31:53.212Z,15.10
2022-07-28T06:33:55.967Z,15.40
2022-07-28T06:35:58.825Z,15.60
2022-07-28T06:38:01.541Z,15.80
2022-07-28T06:40:06.128Z,15.90
2022-07-28T06:42:08.828Z,16.10
2022-07-28T06:44:13.613Z,16.10
2022-07-28T06:46:19.359Z,16.40
2022-07-28T06:48:24.661Z,16.40
2022-07-28T06:50:29.949Z,16.70
2022-07-28T06:52:33.190Z,16.80
2022-07-28T06:54:35.882Z,16.90
2022-07-28T06:56:39.582Z,16.90
2022-07-28T06:58:42.291Z,17.00
2022-07-28T07:00:51.264Z,17.30
2022-07-28T07:02:53.992Z,17.60
2022-07-28T07:04:56.685Z,17.70
2022-07-28T07:06:59.424Z,18.00
2022-07-28T07:09:02.172Z,18.00
2022-07-28T07:11:04.855Z,18.20
2022-07-28T07:13:07.555Z,18.30
2022-07-28T07:15:11.749Z,18.60
2022-07-28T07:17:15.800Z,18.80
2022-07-28T07:19:18.561Z,18.80
2022-07-28T07:21:21.271Z,19.10
2022-07-28T07:23:25.344Z,19.50
2022-07-28T07:25:28.031Z,19.50
2022-07-28T07:27:30.731Z,19.60
2022-07-28T07:29:33.495Z,19.40
2022-07-28T07:31:36.286Z,19.50
2022-07-28T07:33:40.385Z,19.50
2022-07-28T07:35:43.199Z,19.50
2022-07-28T07:37:45.909Z,19.90
2022-07-28T07:39:48.608Z,20.10
2022-07-28T07:41:51.330Z,20.20
2022-07-28T07:43:54.016Z,20.20
2022-07-28T07:45:56.708Z,20.50
2022-07-28T07:47:59.411Z,20.30
2022-07-28T07:50:04.585Z,20.50
2022-07-28T07:52:07.486Z,20.30
2022-07-28T07:54:10.185Z,20.50
2022-07-28T07:56:14.380Z,20.50
2022-07-28T07:58:17.098Z,20.60
2022-07-28T08:00:29.079Z,20.60
2022-07-28T08:02:32.317Z,20.70
2022-07-28T08:04:37.077Z,20.80
2022-07-28T08:06:41.844Z,20.70
2022-07-28T08:08:48.325Z,20.80
2022-07-28T08:10:51.866Z,21.00
2022-07-28T08:12:54.579Z,21.30
2022-07-28T08:14:57.363Z,21.40
2022-07-28T08:17:00.294Z,21.40
2022-07-28T08:19:03.012Z,21.60
2022-07-28T08:21:05.699Z,21.50
2022-07-28T08:23:10.164Z,21.90
2022-07-28T08:25:12.883Z,22.00
2022-07-28T08:27:15.588Z,22.10
2022-07-28T08:29:18.263Z,21.90
2022-07-28T08:31:22.119Z,21.90
2022-07-28T08:33:24.882Z,21.60
2022-07-28T08:35:33.756Z,22.30
2022-07-28T08:37:38.179Z,22.60
2022-07-28T08:39:42.196Z,22.60
2022-07-28T08:41:47.824Z,22.40
2022-07-28T08:43:51.647Z,22.30
2022-07-28T08:45:58.375Z,22.10
2022-07-28T08:48:09.682Z,22.30
2022-07-28T08:50:13.575Z,22.60
2022-07-28T08:52:16.305Z,22.50
2022-07-28T08:54:21.303Z,23.00
2022-07-28T08:56:25.341Z,23.20
2022-07-28T08:58:28.037Z,22.70
2022-07-28T09:00:30.735Z,23.00
2022-07-28T09:02:33.674Z,23.30
2022-07-28T09:04:39.003Z,23.40
2022-07-28T09:06:42.887Z,23.70
2022-07-28T09:08:45.593Z,23.40
2022-07-28T09:10:48.398Z,23.80
2022-07-28T09:12:52.471Z,23.60
2022-07-28T09:14:55.203Z,23.90
2022-07-28T09:16:58.291Z,24.00
2022-07-28T09:19:00.992Z,24.10
2022-07-28T09:21:03.708Z,24.10
2022-07-28T09:23:41.825Z,24.50
2022-07-28T09:25:30.460Z,24.10
2022-07-28T09:27:43.560Z,24.60
2022-07-28T09:29:48.348Z,24.80
2022-07-28T09:31:56.905Z,24.60
2022-07-28T09:34:04.136Z,24.40
2022-07-28T09:36:08.365Z,24.10
2022-07-28T09:38:11.096Z,24.20
2022-07-28T09:40:14.811Z,24.50
2022-07-28T09:42:18.341Z,23.70
2022-07-28T09:44:21.723Z,23.90
2022-07-28T09:46:29.357Z,23.60
2022-07-28T09:48:32.713Z,24.30
2022-07-28T09:50:35.598Z,24.60
2022-07-28T09:52:39.052Z,25.20
2022-07-28T09:54:41.866Z,25.00
2022-07-28T09:56:45.264Z,24.40
2022-07-28T09:58:54.611Z,24.50
2022-07-28T10:01:05.328Z,24.30
2022-07-28T10:03:11.229Z,24.80
2022-07-28T10:05:14.009Z,24.80
2022-07-28T10:07:17.224Z,25.30
2022-07-28T10:09:27.253Z,24.70
2022-07-28T10:11:30.379Z,24.40
2022-07-28T10:13:33.099Z,23.70
2022-07-28T10:15:53.620Z,23.70
2022-07-28T10:17:56.340Z,24.30
2022-07-28T10:20:00.988Z,25.00
2022-07-28T10:22:03.691Z,25.30
2022-07-28T10:24:08.195Z,25.70
2022-07-28T10:26:13.232Z,26.20
2022-07-28T10:28:16.627Z,26.50
2022-07-28T10:30:19.329Z,26.40
2022-07-28T10:32:22.056Z,26.70
2022-07-28T10:34:25.971Z,26.20
2022-07-28T10:36:30.016Z,26.50
2022-07-28T10:38:35.403Z,26.80
2022-07-28T10:40:41.341Z,26.80
2022-07-28T10:42:44.049Z,27.30
2022-07-28T10:44:46.769Z,27.10
2022-07-28T10:46:49.562Z,26.40
2022-07-28T10:48:52.330Z,25.70
2022-07-28T10:50:55.298Z,25.80
2022-07-28T10:52:59.573Z,26.20
2022-07-28T10:55:04.803Z,26.40
2022-07-28T10:57:07.549Z,26.60
2022-07-28T10:59:16.169Z,26.40
2022-07-28T11:01:52.321Z,26.60
2022-07-28T11:03:55.182Z,26.20
2022-07-28T11:05:58.256Z,27.30
2022-07-28T11:08:03.444Z,27.50
2022-07-28T11:10:18.561Z,27.40
2022-07-28T11:12:49.032Z,27.80
2022-07-28T11:14:51.744Z,28.10
2022-07-28T11:17:13.392Z,28.30
2022-07-28T11:19:36.563Z,28.40
2022-07-28T11:21:43.766Z,28.50
2022-07-28T11:23:54.530Z,28.40
2022-07-28T11:26:27.545Z,28.70
2022-07-28T11:28:30.222Z,29.00
2022-07-28T11:30:53.118Z,29.10
2022-07-28T11:32:57.713Z,29.30
2022-07-28T11:35:09.453Z,29.20
2022-07-28T11:37:15.281Z,29.40
2022-07-28T11:39:25.775Z,29.00
2022-07-28T11:41:30.046Z,28.50
2022-07-28T11:43:38.980Z,28.80
2022-07-28T11:45:47.257Z,28.00
2022-07-28T11:48:14.399Z,28.10
2022-07-28T11:50:17.396Z,28.00
2022-07-28T11:52:23.595Z,27.70
2022-07-28T11:54:27.632Z,28.00
2022-07-28T11:56:35.964Z,27.90
2022-07-28T11:58:39.432Z,28.20
2022-07-28T12:00:42.110Z,28.60
2022-07-28T12:02:50.413Z,28.50
2022-07-28T12:05:05.539Z,28.20
2022-07-28T12:07:08.340Z,28.40
2022-07-28T12:09:13.409Z,28.50
2022-07-28T12:11:17.531Z,28.50
2022-07-28T12:13:26.485Z,28.80
2022-07-28T12:15:29.308Z,28.50
2022-07-28T12:17:35.034Z,28.90
2022-07-28T12:19:37.931Z,29.40
2022-07-28T12:21:47.629Z,28.40
2022-07-28T12:23:51.172Z,28.20
2022-07-28T12:25:53.920Z,27.80
2022-07-28T12:27:58.677Z,27.70
2022-07-28T12:30:05.617Z,28.30
2022-07-28T12:32:10.492Z,28.20
2022-07-28T12:34:13.660Z,27.40
2022-07-28T12:36:18.832Z,27.60
2022-07-28T12:38:22.044Z,26.90
2022-07-28T12:40:27.525Z,27.60
2022-07-28T12:42:31.974Z,27.80
2022-07-28T12:44:37.027Z,27.50
2022-07-28T12:46:39.725Z,27.90
2022-07-28T12:48:42.479Z,28.20
2022-07-28T12:50:45.243Z,28.60
2022-07-28T12:53:02.919Z,28.40
2022-07-28T12:55:20.883Z,28.50
2022-07-28T12:57:46.137Z,28.80
2022-07-28T12:59:53.131Z,29.30
2022-07-28T13:01:56.854Z,29.60
2022-07-28T13:03:59.617Z,29.50
2022-07-28T13:06:11.922Z,29.70
2022-07-28T13:08:14.632Z,29.30
2022-07-28T13:10:21.640Z,29.00
2022-07-28T13:12:25.371Z,29.30
2022-07-28T13:14:40.520Z,28.70
2022-07-28T13:16:44.879Z,28.80
2022-07-28T13:18:49.769Z,29.30
2022-07-28T13:20:53.860Z,29.40
2022-07-28T13:22:57.412Z,29.00
2022-07-28T13:25:01.066Z,29.40
2022-07-28T13:27:04.353Z,29.20
2022-07-28T13:29:13.045Z,29.20
2022-07-28T13:31:15.949Z,28.90
2022-07-28T13:33:20.211Z,29.00
2022-07-28T13:35:24.075Z,29.60
2022-07-28T13:37:26.809Z,29.80
2022-07-28T13:39:29.538Z,29.10
2022-07-28T13:41:57.441Z,29.20
2022-07-28T13:43:58.748Z,29.10
2022-07-28T13:46:01.747Z,28.60
2022-07-28T13:48:04.733Z,28.10
2022-07-28T13:50:11.348Z,28.20
2022-07-28T13:52:33.176Z,29.00
2022-07-28T13:54:38.034Z,28.90
2022-07-28T13:56:41.551Z,29.10
2022-07-28T13:58:44.265Z,29.40
2022-07-28T14:00:47.173Z,29.50
2022-07-28T14:02:51.783Z,29.60
2022-07-28T14:04:54.495Z,29.30
2022-07-28T14:06:58.613Z,29.20
2022-07-28T14:09:04.305Z,29.20
2022-07-28T14:11:07.150Z,29.10
2022-07-28T14:13:10.621Z,28.50
2022-07-28T14:15:13.310Z,29.00
2022-07-28T14:17:40.167Z,28.50
2022-07-28T14:19:39.855Z,28.60
2022-07-28T14:21:42.621Z,28.90
2022-07-28T14:23:46.646Z,29.00
2022-07-28T14:25:50.845Z,28.60
2022-07-28T14:27:54.550Z,28.30
2022-07-28T14:29:57.264Z,27.80
2022-07-28T14:32:00.227Z,27.70
2022-07-28T14:34:03.667Z,27.30
2022-07-28T14:36:07.197Z,27.00
2022-07-28T14:40:36.846Z,26.50
2022-07-28T14:42:42.593Z,26.50
2022-07-28T14:44:45.297Z,26.60
2022-07-28T14:46:48.050Z,26.60
2022-07-28T14:48:50.828Z,26.90
2022-07-28T14:50:55.346Z,26.80
2022-07-28T14:52:58.553Z,26.70
2022-07-28T14:55:01.235Z,26.50
2022-07-28T14:57:05.541Z,26.40
2022-07-28T14:59:08.251Z,26.60
2022-07-28T15:01:11.080Z,26.90
2022-07-28T15:03:13.894Z,27.10
2022-07-28T15:05:16.830Z,27.30
2022-07-28T15:07:19.523Z,27.40
2022-07-28T15:09:22.240Z,26.90
2022-07-28T15:11:24.923Z,26.90
2022-07-28T15:13:29.052Z,27.10
2022-07-28T15:15:31.772Z,26.90
2022-07-28T15:17:34.479Z,26.90
2022-07-28T15:19:38.802Z,26.60
2022-07-28T15:21:41.495Z,26.70
2022-07-28T15:23:44.241Z,26.50
2022-07-28T15:25:47.485Z,26.40
2022-07-28T15:27:50.194Z,26.50
2022-07-28T15:29:54.214Z,26.70
2022-07-28T15:32:01.808Z,26.60
2022-07-28T15:34:07.087Z,26.90
2022-07-28T15:36:12.214Z,26.70
2022-07-28T15:38:14.906Z,26.70
2022-07-28T15:40:17.794Z,26.70
2022-07-28T15:42:20.512Z,26.40
2022-07-28T15:44:25.801Z,26.50
2022-07-28T15:46:30.437Z,26.50
2022-07-28T15:48:33.243Z,26.50
2022-07-28T15:50:35.923Z,26.10
2022-07-28T15:52:38.630Z,26.20
2022-07-28T15:54:41.418Z,26.40
2022-07-28T15:56:44.107Z,26.50
2022-07-28T15:58:46.841Z,26.30
2022-07-28T16:00:49.578Z,26.20
2022-07-28T16:02:53.954Z,26.00
2022-07-28T16:04:56.711Z,26.00
2022-07-28T16:07:17.121Z,26.10
2022-07-28T16:09:19.937Z,26.20
2022-07-28T16:11:22.633Z,26.20
2022-07-28T16:13:36.058Z,26.30
2022-07-28T16:15:39.951Z,26.30
2022-07-28T16:17:42.695Z,26.10
2022-07-28T16:19:49.367Z,26.10
2022-07-28T16:21:53.048Z,26.00
2022-07-28T16:23:55.748Z,25.90
2022-07-28T16:25:58.481Z,25.90
2022-07-28T16:28:03.436Z,25.80
2022-07-28T16:30:06.816Z,25.70
2022-07-28T16:32:09.545Z,25.70
2022-07-28T16:34:12.531Z,25.60
2022-07-28T16:36:16.739Z,25.50
2022-07-28T16:38:19.484Z,25.50
2022-07-28T16:40:22.180Z,25.50
2022-07-28T16:42:24.874Z,25.40
2022-07-28T16:44:27.596Z,25.30
2022-07-28T16:46:30.331Z,25.30
2022-07-28T16:48:33.209Z,25.20
2022-07-28T16:50:35.968Z,24.90
2022-07-28T16:52:40.660Z,24.90
2022-07-28T16:54:43.360Z,24.80
2022-07-28T16:56:46.059Z,24.80
2022-07-28T16:58:48.794Z,24.80
2022-07-28T17:00:51.480Z,24.70
2022-07-28T17:02:54.342Z,24.70
2022-07-28T17:04:57.151Z,24.70
2022-07-28T17:06:59.900Z,24.70
2022-07-28T17:09:03.968Z,24.70
2022-07-28T17:11:06.679Z,24.70
2022-07-28T17:13:11.958Z,24.60
2022-07-28T17:15:20.030Z,24.30
2022-07-28T17:17:25.925Z,24.40
2022-07-28T17:19:33.201Z,24.40
2022-07-28T17:21:36.346Z,24.30
2022-07-28T17:23:39.128Z,24.20
2022-07-28T17:26:04.938Z,24.30
2022-07-28T17:28:06.160Z,24.20
2022-07-28T17:30:09.545Z,24.10
2022-07-28T17:32:12.279Z,24.20
2022-07-28T17:34:15.300Z,24.20
2022-07-28T17:36:18.145Z,24.10
2022-07-28T17:38:21.654Z,24.10
2022-07-28T17:40:27.481Z,23.90
2022-07-28T17:42:31.928Z,23.90
2022-07-28T17:44:34.951Z,23.80
2022-07-28T17:46:37.898Z,23.80
2022-07-28T17:48:41.339Z,23.70
2022-07-28T17:50:44.319Z,23.60
2022-07-28T17:52:47.282Z,23.60
2022-07-28T17:55:07.658Z,23.60
2022-07-28T17:57:10.493Z,23.50
2022-07-28T17:59:15.859Z,23.40
2022-07-28T18:01:18.705Z,23.40
2022-07-28T18:03:21.740Z,23.30
2022-07-28T18:05:24.474Z,23.20
2022-07-28T18:07:27.179Z,23.20
2022-07-28T18:09:29.872Z,23.20
2022-07-28T18:11:32.574Z,23.10
2022-07-28T18:13:35.303Z,23.00
2022-07-28T18:15:39.391Z,23.00
2022-07-28T18:17:54.723Z,22.90
2022-07-28T18:20:00.027Z,22.90
2022-07-28T18:22:02.721Z,22.80
2022-07-28T18:24:06.333Z,22.70
2022-07-28T18:26:09.032Z,22.70
2022-07-28T18:28:11.740Z,22.60
2022-07-28T18:30:15.556Z,22.60
2022-07-28T18:32:19.639Z,22.60
2022-07-28T18:34:24.715Z,22.50
2022-07-28T18:36:27.635Z,22.40
2022-07-28T18:38:30.329Z,22.40
2022-07-28T18:40:33.117Z,22.30
2022-07-28T18:42:35.845Z,22.30
2022-07-28T18:44:38.581Z,22.20
2022-07-28T18:46:44.319Z,22.20
2022-07-28T18:48:51.365Z,22.10
2022-07-28T18:50:56.497Z,22.10
2022-07-28T18:52:59.330Z,22.00
2022-07-28T18:55:02.008Z,21.90
2022-07-28T18:57:04.893Z,21.90
2022-07-28T18:59:07.596Z,21.90
2022-07-28T19:01:13.175Z,21.80
2022-07-28T19:03:16.345Z,21.80
2022-07-28T19:05:20.447Z,21.70
2022-07-28T19:07:23.153Z,21.60
2022-07-28T19:09:25.936Z,21.60
2022-07-28T19:11:32.128Z,21.50
2022-07-28T19:13:34.875Z,21.50
2022-07-28T19:15:37.611Z,21.40
2022-07-28T19:17:40.833Z,21.40
2022-07-28T19:19:43.561Z,21.30
2022-07-28T19:21:47.627Z,21.20
2022-07-28T19:23:50.967Z,21.20
2022-07-28T19:25:53.698Z,21.10
2022-07-28T19:27:57.630Z,21.10
2022-07-28T19:30:00.350Z,21.00
2022-07-28T19:32:04.553Z,21.00
2022-07-28T19:34:07.275Z,20.90
2022-07-28T19:36:13.419Z,20.90
2022-07-28T19:38:17.488Z,20.80
2022-07-28T19:40:20.313Z,20.80
2022-07-28T19:42:23.033Z,20.70
2022-07-28T19:44:25.751Z,20.70
2022-07-28T19:46:28.792Z,20.60
2022-07-28T19:48:31.593Z,20.60
2022-07-28T19:50:36.050Z,20.50
2022-07-28T19:52:38.759Z,20.50
2022-07-28T19:54:43.256Z,20.50
2022-07-28T19:56:54.432Z,20.40
2022-07-28T19:58:58.277Z,20.40
2022-07-28T20:01:01.072Z,20.30
2022-07-28T20:03:04.062Z,20.30
2022-07-28T20:05:26.930Z,20.30
2022-07-28T20:07:29.661Z,20.30
2022-07-28T20:09:32.546Z,20.30
2022-07-28T20:11:36.967Z,20.20
2022-07-28T20:13:39.689Z,20.20
2022-07-28T20:15:42.427Z,20.20
2022-07-28T20:17:45.322Z,20.10
2022-07-28T20:19:49.085Z,20.00
2022-07-28T20:21:51.814Z,20.00
2022-07-28T20:23:55.340Z,20.00
2022-07-28T20:25:58.068Z,20.00
2022-07-28T20:28:02.129Z,19.90
2022-07-28T20:30:06.094Z,19.90
2022-07-28T20:32:08.811Z,19.90
2022-07-28T20:34:12.901Z,19.80
2022-07-28T20:36:16.278Z,19.70
2022-07-28T20:38:19.001Z,19.70
2022-07-28T20:40:21.812Z,19.70
2022-07-28T20:42:24.554Z,19.60
2022-07-28T20:44:29.909Z,19.60
2022-07-28T20:46:33.259Z,19.60
2022-07-28T20:48:36.125Z,19.50
2022-07-28T20:50:38.913Z,19.50
2022-07-28T20:52:41.675Z,19.50
2022-07-28T20:54:44.465Z,19.40
2022-07-28T20:56:47.179Z,19.40
2022-07-28T20:58:49.917Z,19.40
2022-07-28T21:00:54.064Z,19.40
2022-07-28T21:02:56.901Z,19.40
2022-07-28T21:04:59.657Z,19.40
2022-07-28T21:07:04.205Z,19.40
2022-07-28T21:09:07.072Z,19.30
2022-07-28T21:11:09.809Z,19.30
2022-07-28T21:13:12.535Z,19.30
2022-07-28T21:15:15.257Z,19.20
2022-07-28T21:17:19.373Z,19.20
2022-07-28T21:19:22.092Z,19.20
2022-07-28T21:21:24.809Z,19.10
2022-07-28T21:23:27.542Z,19.10
2022-07-28T21:25:31.394Z,19.10
2022-07-28T21:27:48.105Z,19.00
2022-07-28T21:32:03.749Z,19.00
2022-07-28T21:34:10.065Z,18.90
2022-07-28T21:36:12.775Z,18.90
2022-07-28T21:38:15.538Z,18.90
2022-07-28T21:40:19.152Z,18.90
2022-07-28T21:42:21.973Z,18.80
2022-07-28T21:44:24.687Z,18.80
2022-07-28T21:46:27.602Z,18.80
2022-07-28T21:48:30.891Z,18.80
2022-07-28T21:50:36.580Z,18.70
2022-07-28T21:52:39.371Z,18.70
2022-07-28T21:54:42.236Z,18.70
2022-07-28T21:56:47.684Z,18.70
2022-07-28T21:58:51.002Z,18.70
2022-07-28T22:00:53.772Z,18.70
2022-07-28T22:02:56.889Z,18.60
2022-07-28T22:05:03.129Z,18.60
2022-07-28T22:07:07.249Z,18.60
2022-07-28T22:09:09.973Z,18.50
2022-07-28T22:11:12.697Z,18.50
2022-07-28T22:13:18.571Z,18.40
2022-07-28T22:15:21.292Z,18.40
2022-07-28T22:17:24.012Z,18.40
2022-07-28T22:19:26.717Z,18.40
2022-07-28T22:21:32.863Z,18.40
2022-07-28T22:23:36.918Z,18.40
2022-07-28T22:25:39.637Z,18.30
2022-07-28T22:27:42.360Z,18.30
2022-07-28T22:29:45.089Z,18.30
2022-07-28T22:31:59.049Z,18.30
2022-07-28T22:34:02.140Z,18.30
2022-07-28T22:36:05.477Z,18.40
2022-07-28T22:38:08.234Z,18.30
2022-07-28T22:40:13.489Z,18.30
2022-07-28T22:42:16.317Z,18.30
2022-07-28T22:44:19.480Z,18.30
2022-07-28T22:46:22.463Z,18.30
2022-07-28T22:48:25.223Z,18.20
2022-07-28T22:50:27.928Z,18.20
2022-07-28T22:52:30.772Z,18.20
2022-07-28T22:54:33.498Z,18.20
2022-07-28T22:56:37.817Z,18.20
2022-07-28T22:58:40.594Z,18.20
2022-07-28T23:00:43.552Z,18.20
2022-07-28T23:02:46.384Z,18.20
2022-07-28T23:04:51.916Z,18.20
2022-07-28T23:06:54.817Z,18.10
2022-07-28T23:08:57.586Z,18.10
2022-07-28T23:11:00.326Z,18.10
2022-07-28T23:13:04.382Z,18.00
2022-07-28T23:15:08.802Z,18.00
2022-07-28T23:17:11.520Z,18.00
2022-07-28T23:19:14.235Z,18.00
2022-07-28T23:21:16.965Z,18.00
2022-07-28T23:23:19.690Z,17.90
2022-07-28T23:25:22.466Z,17.90
2022-07-28T23:27:25.268Z,17.90
2022-07-28T23:29:29.361Z,17.90
2022-07-28T23:31:32.166Z,17.90
2022-07-28T23:33:56.441Z,17.90
2022-07-28T23:35:57.698Z,17.90
2022-07-28T23:38:00.431Z,17.90
2022-07-28T23:40:03.158Z,17.90
2022-07-28T23:42:06.424Z,18.00
2022-07-28T23:44:09.146Z,17.90
2022-07-28T23:46:13.325Z,18.00
2022-07-28T23:48:16.068Z,18.00
2022-07-28T23:50:18.844Z,18.00
2022-07-28T23:52:22.888Z,18.00
2022-07-28T23:54:25.605Z,18.00
2022-07-28T23:56:28.346Z,18.00
2022-07-28T23:58:31.056Z,18.00
